createdAt,value
2022-10-24T00:09:14.909Z,99922.19
2022-10-24T00:14:17.591Z,99924.03
2022-10-24T00:19:20.269Z,99940.31
2022-10-24T00:24:25.176Z,99939.44
2022-10-24T00:29:27.889Z,99942.53
2022-10-24T00:34:30.532Z,99934.91
2022-10-24T00:39:34.732Z,99918.03
2022-10-24T00:44:38.495Z,99898.59
2022-10-24T00:49:45.667Z,99900.88
2022-10-24T00:54:49.672Z,99903.97
2022-10-24T00:59:55.736Z,99905.81
2022-10-24T01:04:58.371Z,99911.72
2022-10-24T01:10:10.771Z,99904.78
2022-10-24T01:15:16.943Z,99893.31
2022-10-24T01:20:33.524Z,99884.94
2022-10-24T01:25:43.155Z,99895.38
2022-10-24T01:30:49.327Z,99886.63
2022-10-24T01:35:54.060Z,99883.22
2022-10-24T01:40:58.395Z,99880.94
2022-10-24T01:46:04.091Z,99873.16
2022-10-24T01:51:07.266Z,99877.94
2022-10-24T01:56:09.911Z,99873.69
2022-10-24T02:01:16.316Z,99867.72
2022-10-24T02:06:19.964Z,99871.69
2022-10-24T02:11:22.757Z,99865.59
2022-10-24T02:16:26.871Z,99861.47
2022-10-24T02:21:31.010Z,99860.75
2022-10-24T02:26:35.866Z,99863.84
2022-10-24T02:31:42.190Z,99862.13
2022-10-24T02:36:44.869Z,99860.81
2022-10-24T02:41:47.524Z,99863.75
2022-10-24T02:46:53.144Z,99865.88
2022-10-24T02:51:55.896Z,99873.22
2022-10-24T02:56:59.950Z,99870.66
2022-10-24T03:02:03.936Z,99862.13
2022-10-24T03:07:07.446Z,99872.75
2022-10-24T03:12:10.902Z,99877.53
2022-10-24T03:17:14.881Z,99877.69
2022-10-24T03:22:17.513Z,99862.94
2022-10-24T03:27:20.155Z,99877.81
2022-10-24T03:32:24.147Z,99876.50
2022-10-24T03:37:26.867Z,99876.50
2022-10-24T03:42:29.517Z,99892.75
2022-10-24T03:47:33.497Z,99889.06
2022-10-24T03:52:36.211Z,99892.75
2022-10-24T03:57:38.898Z,99892.03
2022-10-24T04:02:43.935Z,99898.47
2022-10-24T04:07:47.145Z,99889.59
2022-10-24T04:12:50.151Z,99895.22
2022-10-24T04:17:54.115Z,99885.47
2022-10-24T04:22:58.277Z,99890.00
2022-10-24T04:28:01.769Z,99889.13
2022-10-24T04:33:05.788Z,99893.03
2022-10-24T04:38:08.438Z,99891.34
2022-10-24T04:43:11.088Z,99885.13
2022-10-24T04:48:15.283Z,99887.81
2022-10-24T04:53:17.977Z,99883.56
2022-10-24T04:58:20.889Z,99892.59
2022-10-24T05:03:24.864Z,99889.91
2022-10-24T05:08:27.651Z,99882.00
2022-10-24T05:13:32.990Z,99891.03
2022-10-24T05:18:39.961Z,99904.47
2022-10-24T05:23:42.615Z,99904.47
2022-10-24T05:28:50.104Z,99883.09
2022-10-24T05:33:56.505Z,99874.19
2022-10-24T05:38:59.387Z,99860.78
2022-10-24T05:44:02.182Z,99850.03
2022-10-24T05:49:06.296Z,99860.91
2022-10-24T05:54:08.975Z,99865.44
2022-10-24T05:59:11.633Z,99868.13
2022-10-24T06:04:15.669Z,99865.56
2022-10-24T06:09:18.358Z,99867.25
2022-10-24T06:14:21.018Z,99877.16
2022-10-24T06:19:25.059Z,99869.09
2022-10-24T06:24:27.703Z,99887.88
2022-10-24T06:29:30.377Z,99878.97
2022-10-24T06:34:35.483Z,99894.94
2022-10-24T06:39:38.196Z,99897.63
2022-10-24T06:44:40.898Z,99910.06
2022-10-24T06:49:45.045Z,99918.81
2022-10-24T06:54:47.719Z,99901.16
2022-10-24T06:59:50.393Z,99899.19
2022-10-24T07:04:54.366Z,99899.94
2022-10-24T07:09:58.007Z,99919.44
2022-10-24T07:15:00.653Z,99932.59
2022-10-24T07:20:05.454Z,99951.25
2022-10-24T07:25:08.957Z,99954.53
2022-10-24T07:30:16.456Z,99973.78
2022-10-24T07:35:20.747Z,99962.81
2022-10-24T07:40:23.501Z,99959.97
2022-10-24T07:45:27.902Z,99957.28
2022-10-24T07:50:32.094Z,99945.09
2022-10-24T07:55:34.763Z,99944.97
2022-10-24T08:00:41.181Z,99952.66
2022-10-24T08:05:48.222Z,99962.13
2022-10-24T08:10:50.974Z,99966.66
2022-10-24T08:15:53.695Z,99967.50
2022-10-24T08:21:01.381Z,99969.09
2022-10-24T08:26:05.658Z,99953.84
2022-10-24T08:31:10.043Z,99950.28
2022-10-24T08:36:20.418Z,99957.69
2022-10-24T08:41:28.910Z,99960.84
2022-10-24T08:46:38.449Z,99970.53
2022-10-24T08:51:43.723Z,99966.44
2022-10-24T08:56:46.359Z,99946.34
2022-10-24T09:01:51.963Z,99950.09
2022-10-24T09:06:56.110Z,99932.34
2022-10-24T09:12:00.783Z,99935.63
2022-10-24T09:17:07.254Z,99935.47
2022-10-24T09:22:12.431Z,99934.38
2022-10-24T09:27:16.858Z,99933.28
2022-10-24T09:32:20.549Z,99935.53
2022-10-24T09:37:41.257Z,99946.16
2022-10-24T09:42:52.569Z,99950.53
2022-10-24T09:47:56.224Z,99929.78
2022-10-24T09:53:00.391Z,99934.19
2022-10-24T09:58:05.363Z,99947.50
2022-10-24T10:03:23.613Z,99941.00
2022-10-24T10:08:29.342Z,99952.59
2022-10-24T10:13:37.568Z,99954.28
2022-10-24T10:18:45.611Z,99941.38
2022-10-24T10:23:50.168Z,99952.97
2022-10-24T10:28:55.960Z,99955.66
2022-10-24T10:34:08.697Z,99936.88
2022-10-24T10:39:28.595Z,99954.94
2022-10-24T10:44:44.708Z,99955.66
2022-10-24T10:49:47.714Z,99953.72
2022-10-24T10:55:11.229Z,99955.75
2022-10-24T11:00:14.798Z,99964.66
2022-10-24T11:05:24.633Z,99949.41
2022-10-24T11:10:30.543Z,99931.59
2022-10-24T11:15:34.545Z,99937.81
2022-10-24T11:20:38.653Z,99931.03
2022-10-24T11:25:43.856Z,99922.72
2022-10-24T11:30:49.730Z,99926.25
2022-10-24T11:36:06.279Z,99920.59
2022-10-24T11:41:28.623Z,99905.75
2022-10-24T11:46:34.186Z,99910.84
2022-10-24T11:51:38.633Z,99908.84
2022-10-24T11:56:44.948Z,99899.34
2022-10-24T12:01:59.171Z,99902.03
2022-10-24T12:07:34.608Z,99898.03
2022-10-24T12:12:47.799Z,99894.38
2022-10-24T12:17:58.573Z,99907.53
2022-10-24T12:23:01.500Z,99910.66
2022-10-24T12:28:06.844Z,99903.22
2022-10-24T12:33:11.479Z,99901.38
2022-10-24T12:38:37.185Z,99897.69
2022-10-24T12:43:42.783Z,99893.31
2022-10-24T12:48:45.674Z,99885.97
2022-10-24T12:54:05.089Z,99892.19
2022-10-24T12:59:21.965Z,99902.09
2022-10-24T13:04:52.566Z,99876.06
2022-10-24T13:10:02.019Z,99877.06
2022-10-24T13:15:15.310Z,99868.81
2022-10-24T13:20:19.005Z,99883.09
2022-10-24T13:25:23.003Z,99889.63
2022-10-24T13:30:27.772Z,99908.44
2022-10-24T13:35:30.982Z,99909.28
2022-10-24T13:40:34.213Z,99904.91
2022-10-24T13:45:42.820Z,99898.69
2022-10-24T13:50:49.491Z,99900.63
2022-10-24T13:55:52.135Z,99909.53
2022-10-24T14:00:58.056Z,99907.72
2022-10-24T14:06:01.652Z,99901.63
2022-10-24T14:11:05.409Z,99905.06
2022-10-24T14:16:09.765Z,99904.06
2022-10-24T14:21:17.699Z,99896.84
2022-10-24T14:26:20.787Z,99901.22
2022-10-24T14:31:25.676Z,99890.50
2022-10-24T14:36:29.414Z,99887.81
2022-10-24T14:41:33.132Z,99902.22
2022-10-24T14:46:37.710Z,99906.75
2022-10-24T14:51:40.617Z,99909.09
2022-10-24T14:56:43.410Z,99911.50
2022-10-24T15:01:55.407Z,99909.69
2022-10-24T15:06:58.445Z,99910.09
2022-10-24T15:12:02.095Z,99904.59
2022-10-24T15:17:19.375Z,99902.09
2022-10-24T15:22:26.026Z,99904.06
2022-10-24T15:27:29.882Z,99906.47
2022-10-24T15:32:33.842Z,99911.84
2022-10-24T15:37:36.558Z,99911.00
2022-10-24T15:42:39.296Z,99920.03
2022-10-24T15:47:44.774Z,99919.19
2022-10-24T15:52:49.045Z,99918.88
2022-10-24T15:57:51.907Z,99916.69
2022-10-24T16:02:57.852Z,99923.94
2022-10-24T16:08:00.543Z,99937.53
2022-10-24T16:13:03.327Z,99932.16
2022-10-24T16:18:08.054Z,99936.81
2022-10-24T16:23:11.701Z,99937.94
2022-10-24T16:28:15.565Z,99940.72
2022-10-24T16:33:20.184Z,99933.78
2022-10-24T16:38:22.884Z,99935.63
2022-10-24T16:43:25.751Z,99943.94
2022-10-24T16:48:30.305Z,99948.56
2022-10-24T16:53:32.969Z,99948.56
2022-10-24T16:58:35.677Z,99963.97
2022-10-24T17:03:39.951Z,99954.22
2022-10-24T17:08:42.625Z,99957.03
2022-10-24T17:13:45.600Z,99956.19
2022-10-24T17:19:04.972Z,99965.22
2022-10-24T17:24:11.673Z,99967.91
2022-10-24T17:29:14.688Z,99970.44
2022-10-24T17:34:18.982Z,99974.91
2022-10-24T17:44:31.041Z,99980.16
2022-10-24T17:49:35.190Z,99985.16
2022-10-24T17:54:41.057Z,99982.94
2022-10-24T17:59:46.231Z,99984.50
2022-10-24T18:04:51.947Z,99991.16
2022-10-24T18:10:00.232Z,99990.78
2022-10-24T18:15:03.000Z,99994.91
2022-10-24T18:20:08.037Z,99989.16
2022-10-24T18:25:11.270Z,99990.84
2022-10-24T18:30:14.083Z,99987.75
2022-10-24T18:35:18.082Z,99988.22
2022-10-24T18:40:21.672Z,99988.78
2022-10-24T18:45:26.274Z,99991.06
2022-10-24T18:50:30.973Z,99993.63
2022-10-24T18:55:34.367Z,99999.72
2022-10-24T19:00:38.193Z,99992.81
2022-10-24T19:05:47.799Z,99994.53
2022-10-24T19:10:53.335Z,99990.56
2022-10-24T19:15:58.124Z,99990.56
2022-10-24T19:21:02.153Z,99990.31
2022-10-24T19:26:04.811Z,99987.19
2022-10-24T19:31:07.848Z,99986.50
2022-10-24T19:36:14.495Z,99988.19
2022-10-24T19:41:21.301Z,99985.25
2022-10-24T19:46:24.034Z,99987.69
2022-10-24T19:51:28.209Z,99991.94
2022-10-24T19:56:31.382Z,99976.50
2022-10-24T20:01:34.331Z,99970.03
2022-10-24T20:06:38.514Z,99985.72
2022-10-24T20:11:41.185Z,99977.53
2022-10-24T20:16:43.877Z,99989.97
2022-10-24T20:21:48.645Z,99984.59
2022-10-24T20:26:51.308Z,99995.22
2022-10-24T20:31:54.006Z,99998.22
2022-10-24T20:36:58.024Z,100004.72
2022-10-24T20:42:00.875Z,100003.47
2022-10-24T20:47:03.634Z,100008.28
2022-10-24T20:52:07.993Z,100009.56
2022-10-24T20:57:10.769Z,100010.28
2022-10-24T21:02:13.589Z,100013.53
2022-10-24T21:07:18.027Z,100017.91
2022-10-24T21:12:20.998Z,100024.00
2022-10-24T21:22:32.965Z,100030.13
2022-10-24T21:27:35.623Z,100046.69
2022-10-24T21:32:38.299Z,100042.31
2022-10-24T21:37:42.397Z,100030.69
2022-10-24T21:42:45.314Z,100029.84
2022-10-24T21:47:48.204Z,100037.63
2022-10-24T21:52:52.371Z,100041.16
2022-10-24T21:57:55.080Z,100041.91
2022-10-24T22:02:57.716Z,100038.22
2022-10-24T22:08:02.300Z,100042.03
2022-10-24T22:13:04.999Z,100050.38
2022-10-24T22:18:07.707Z,100052.66
2022-10-24T22:23:11.841Z,100056.44
2022-10-24T22:28:14.544Z,100061.97
2022-10-24T22:33:18.767Z,100058.72
2022-10-24T22:38:23.377Z,100055.16
2022-10-24T22:43:26.544Z,100058.84
2022-10-24T22:48:30.111Z,100064.75
2022-10-24T22:53:34.931Z,100062.91
2022-10-24T22:58:38.189Z,100067.72
2022-10-24T23:03:44.386Z,100067.00
2022-10-24T23:08:48.498Z,100074.16
2022-10-24T23:13:52.205Z,100072.94
2022-10-24T23:18:55.519Z,100073.31
2022-10-24T23:24:00.146Z,100085.06
2022-10-24T23:29:06.733Z,100095.69
2022-10-24T23:34:10.105Z,100095.81
2022-10-24T23:39:14.900Z,100103.88
2022-10-24T23:44:18.073Z,100091.91
2022-10-24T23:49:24.084Z,100090.31
2022-10-24T23:54:31.538Z,100085.66
2022-10-24T23:59:34.173Z,100084.53
